sensor_id;sensor_type;location;lat;lon;timestamp;pressure;altitude;pressure_sealevel;temperature
67966;BMP280;54749;47.850;9.002;2023-09-07T00:02:07;96210.31;;;16.49
67966;BMP280;54749;47.850;9.002;2023-09-07T00:04:34;96202.94;;;16.46
67966;BMP280;54749;47.850;9.002;2023-09-07T00:07:05;96206.28;;;16.47
67966;BMP280;54749;47.850;9.002;2023-09-07T00:09:32;96205.97;;;16.49
67966;BMP280;54749;47.850;9.002;2023-09-07T00:11:59;96208.97;;;16.45
67966;BMP280;54749;47.850;9.002;2023-09-07T00:14:27;96202.97;;;16.37
67966;BMP280;54749;47.850;9.002;2023-09-07T00:16:54;96200.72;;;16.34
67966;BMP280;54749;47.850;9.002;2023-09-07T00:19:21;96210.25;;;16.32
67966;BMP280;54749;47.850;9.002;2023-09-07T00:21:48;96208.69;;;16.31
67966;BMP280;54749;47.850;9.002;2023-09-07T00:24:18;96202.91;;;16.29
67966;BMP280;54749;47.850;9.002;2023-09-07T00:26:46;96210.19;;;16.24
67966;BMP280;54749;47.850;9.002;2023-09-07T00:29:13;96209.38;;;16.24
67966;BMP280;54749;47.850;9.002;2023-09-07T00:31:40;96211.16;;;16.23
67966;BMP280;54749;47.850;9.002;2023-09-07T00:34:08;96208.88;;;16.20
67966;BMP280;54749;47.850;9.002;2023-09-07T00:36:36;96214.38;;;16.16
67966;BMP280;54749;47.850;9.002;2023-09-07T00:39:04;96215.09;;;16.09
67966;BMP280;54749;47.850;9.002;2023-09-07T00:41:32;96214.03;;;16.02
67966;BMP280;54749;47.850;9.002;2023-09-07T00:43:59;96220.38;;;15.98
67966;BMP280;54749;47.850;9.002;2023-09-07T00:46:26;96223.47;;;15.92
67966;BMP280;54749;47.850;9.002;2023-09-07T00:48:53;96218.94;;;15.86
67966;BMP280;54749;47.850;9.002;2023-09-07T00:51:21;96216.66;;;15.83
67966;BMP280;54749;47.850;9.002;2023-09-07T00:53:49;96218.03;;;15.78
67966;BMP280;54749;47.850;9.002;2023-09-07T00:56:16;96222.19;;;15.79
67966;BMP280;54749;47.850;9.002;2023-09-07T00:58:44;96221.94;;;15.73
67966;BMP280;54749;47.850;9.002;2023-09-07T01:01:11;96221.69;;;15.66
67966;BMP280;54749;47.850;9.002;2023-09-07T01:03:38;96212.72;;;15.62
67966;BMP280;54749;47.850;9.002;2023-09-07T01:06:16;96217.69;;;15.55
67966;BMP280;54749;47.850;9.002;2023-09-07T01:08:46;96219.59;;;15.53
67966;BMP280;54749;47.850;9.002;2023-09-07T01:11:16;96212.59;;;15.55
67966;BMP280;54749;47.850;9.002;2023-09-07T01:13:43;96213.16;;;15.58
67966;BMP280;54749;47.850;9.002;2023-09-07T01:16:12;96211.53;;;15.57
67966;BMP280;54749;47.850;9.002;2023-09-07T01:18:40;96210.03;;;15.55
67966;BMP280;54749;47.850;9.002;2023-09-07T01:21:09;96208.72;;;15.51
67966;BMP280;54749;47.850;9.002;2023-09-07T01:23:41;96209.94;;;15.47
67966;BMP280;54749;47.850;9.002;2023-09-07T01:26:09;96212.09;;;15.42
67966;BMP280;54749;47.850;9.002;2023-09-07T01:28:37;96216.38;;;15.42
67966;BMP280;54749;47.850;9.002;2023-09-07T01:31:05;96211.56;;;15.39
67966;BMP280;54749;47.850;9.002;2023-09-07T01:33:33;96216.03;;;15.37
67966;BMP280;54749;47.850;9.002;2023-09-07T01:36:00;96213.19;;;15.40
67966;BMP280;54749;47.850;9.002;2023-09-07T01:38:27;96211.69;;;15.37
67966;BMP280;54749;47.850;9.002;2023-09-07T01:40:55;96210.75;;;15.38
67966;BMP280;54749;47.850;9.002;2023-09-07T01:43:22;96211.69;;;15.37
67966;BMP280;54749;47.850;9.002;2023-09-07T01:45:50;96211.84;;;15.36
67966;BMP280;54749;47.850;9.002;2023-09-07T01:48:17;96218.03;;;15.24
67966;BMP280;54749;47.850;9.002;2023-09-07T01:50:44;96212.94;;;15.24
67966;BMP280;54749;47.850;9.002;2023-09-07T01:53:11;96214.53;;;15.25
67966;BMP280;54749;47.850;9.002;2023-09-07T01:55:38;96205.97;;;15.26
67966;BMP280;54749;47.850;9.002;2023-09-07T01:58:06;96209.19;;;15.28
67966;BMP280;54749;47.850;9.002;2023-09-07T02:00:36;96213.72;;;15.34
67966;BMP280;54749;47.850;9.002;2023-09-07T02:03:05;96213.06;;;15.32
67966;BMP280;54749;47.850;9.002;2023-09-07T02:05:34;96205.97;;;15.26
67966;BMP280;54749;47.850;9.002;2023-09-07T02:08:01;96206.25;;;15.23
67966;BMP280;54749;47.850;9.002;2023-09-07T02:10:29;96201.81;;;15.25
67966;BMP280;54749;47.850;9.002;2023-09-07T02:12:57;96200.19;;;15.24
67966;BMP280;54749;47.850;9.002;2023-09-07T02:15:25;96201.41;;;15.20
67966;BMP280;54749;47.850;9.002;2023-09-07T02:17:52;96200.38;;;15.13
67966;BMP280;54749;47.850;9.002;2023-09-07T02:20:21;96204.78;;;15.11
67966;BMP280;54749;47.850;9.002;2023-09-07T02:22:48;96204.13;;;15.09
67966;BMP280;54749;47.850;9.002;2023-09-07T02:25:15;96197.53;;;15.07
67966;BMP280;54749;47.850;9.002;2023-09-07T02:27:42;96197.81;;;15.04
67966;BMP280;54749;47.850;9.002;2023-09-07T02:30:10;96203.84;;;15.03
67966;BMP280;54749;47.850;9.002;2023-09-07T02:32:38;96199.03;;;15.00
67966;BMP280;54749;47.850;9.002;2023-09-07T02:35:05;96198.75;;;14.94
67966;BMP280;54749;47.850;9.002;2023-09-07T02:37:32;96210.03;;;14.91
67966;BMP280;54749;47.850;9.002;2023-09-07T02:40:00;96200.91;;;14.89
67966;BMP280;54749;47.850;9.002;2023-09-07T02:42:27;96207.84;;;14.87
67966;BMP280;54749;47.850;9.002;2023-09-07T02:44:54;96200.34;;;14.86
67966;BMP280;54749;47.850;9.002;2023-09-07T02:47:21;96202.78;;;14.87
67966;BMP280;54749;47.850;9.002;2023-09-07T02:49:49;96207.19;;;14.85
67966;BMP280;54749;47.850;9.002;2023-09-07T02:52:16;96212.41;;;14.84
67966;BMP280;54749;47.850;9.002;2023-09-07T02:54:44;96210.00;;;14.82
67966;BMP280;54749;47.850;9.002;2023-09-07T02:57:11;96216.19;;;14.80
67966;BMP280;54749;47.850;9.002;2023-09-07T02:59:40;96217.38;;;14.76
67966;BMP280;54749;47.850;9.002;2023-09-07T03:02:07;96212.41;;;14.74
67966;BMP280;54749;47.850;9.002;2023-09-07T03:04:34;96207.59;;;14.72
67966;BMP280;54749;47.850;9.002;2023-09-07T03:07:02;96218.03;;;14.69
67966;BMP280;54749;47.850;9.002;2023-09-07T03:09:30;96208.53;;;14.61
67966;BMP280;54749;47.850;9.002;2023-09-07T03:11:57;96204.75;;;14.56
67966;BMP280;54749;47.850;9.002;2023-09-07T03:14:24;96215.88;;;14.55
67966;BMP280;54749;47.850;9.002;2023-09-07T03:16:52;96212.69;;;14.53
67966;BMP280;54749;47.850;9.002;2023-09-07T03:19:21;96218.00;;;14.50
67966;BMP280;54749;47.850;9.002;2023-09-07T03:21:48;96214.81;;;14.48
67966;BMP280;54749;47.850;9.002;2023-09-07T03:24:16;96218.81;;;14.51
67966;BMP280;54749;47.850;9.002;2023-09-07T03:26:43;96209.72;;;14.48
67966;BMP280;54749;47.850;9.002;2023-09-07T03:29:11;96208.38;;;14.44
67966;BMP280;54749;47.850;9.002;2023-09-07T03:31:38;96213.75;;;14.41
67966;BMP280;54749;47.850;9.002;2023-09-07T03:34:06;96212.09;;;14.22
67966;BMP280;54749;47.850;9.002;2023-09-07T03:36:33;96217.09;;;14.03
67966;BMP280;54749;47.850;9.002;2023-09-07T03:39:00;96214.91;;;13.90
67966;BMP280;54749;47.850;9.002;2023-09-07T03:41:27;96215.44;;;13.84
67966;BMP280;54749;47.850;9.002;2023-09-07T03:43:59;96212.22;;;13.82
67966;BMP280;54749;47.850;9.002;2023-09-07T03:46:28;96214.53;;;13.85
67966;BMP280;54749;47.850;9.002;2023-09-07T03:48:56;96210.91;;;13.87
67966;BMP280;54749;47.850;9.002;2023-09-07T03:51:23;96210.50;;;13.83
67966;BMP280;54749;47.850;9.002;2023-09-07T03:53:51;96225.50;;;13.66
67966;BMP280;54749;47.850;9.002;2023-09-07T03:56:18;96222.63;;;13.50
67966;BMP280;54749;47.850;9.002;2023-09-07T03:58:46;96224.56;;;13.37
67966;BMP280;54749;47.850;9.002;2023-09-07T04:01:16;96218.63;;;13.28
67966;BMP280;54749;47.850;9.002;2023-09-07T04:03:43;96229.59;;;13.28
67966;BMP280;54749;47.850;9.002;2023-09-07T04:06:11;96226.22;;;13.28
67966;BMP280;54749;47.850;9.002;2023-09-07T04:08:38;96225.09;;;13.21
67966;BMP280;54749;47.850;9.002;2023-09-07T04:11:05;96222.81;;;13.18
67966;BMP280;54749;47.850;9.002;2023-09-07T04:13:35;96224.94;;;13.13
67966;BMP280;54749;47.850;9.002;2023-09-07T04:16:02;96225.44;;;13.07
67966;BMP280;54749;47.850;9.002;2023-09-07T04:18:30;96222.69;;;12.99
67966;BMP280;54749;47.850;9.002;2023-09-07T04:21:08;96225.47;;;12.96
67966;BMP280;54749;47.850;9.002;2023-09-07T04:23:36;96224.69;;;12.96
67966;BMP280;54749;47.850;9.002;2023-09-07T04:26:09;96225.38;;;12.98
67966;BMP280;54749;47.850;9.002;2023-09-07T04:28:37;96229.75;;;12.96
67966;BMP280;54749;47.850;9.002;2023-09-07T04:31:06;96225.97;;;12.91
67966;BMP280;54749;47.850;9.002;2023-09-07T04:33:34;96222.97;;;12.86
67966;BMP280;54749;47.850;9.002;2023-09-07T04:36:11;96230.19;;;12.81
67966;BMP280;54749;47.850;9.002;2023-09-07T04:38:41;96230.41;;;12.78
67966;BMP280;54749;47.850;9.002;2023-09-07T04:41:09;96221.19;;;12.77
67966;BMP280;54749;47.850;9.002;2023-09-07T04:43:38;96226.13;;;12.78
67966;BMP280;54749;47.850;9.002;2023-09-07T04:46:13;96232.53;;;12.93
67966;BMP280;54749;47.850;9.002;2023-09-07T04:48:41;96227.22;;;12.96
67966;BMP280;54749;47.850;9.002;2023-09-07T04:51:10;96224.56;;;12.97
67966;BMP280;54749;47.850;9.002;2023-09-07T04:53:40;96227.31;;;12.95
67966;BMP280;54749;47.850;9.002;2023-09-07T04:56:08;96232.84;;;12.99
67966;BMP280;54749;47.850;9.002;2023-09-07T04:58:37;96239.28;;;13.03
67966;BMP280;54749;47.850;9.002;2023-09-07T05:01:06;96236.25;;;13.09
67966;BMP280;54749;47.850;9.002;2023-09-07T05:03:33;96242.44;;;13.16
67966;BMP280;54749;47.850;9.002;2023-09-07T05:06:01;96244.50;;;13.22
67966;BMP280;54749;47.850;9.002;2023-09-07T05:08:30;96234.94;;;13.34
67966;BMP280;54749;47.850;9.002;2023-09-07T05:11:00;96243.88;;;13.49
67966;BMP280;54749;47.850;9.002;2023-09-07T05:13:29;96242.94;;;13.79
67966;BMP280;54749;47.850;9.002;2023-09-07T05:15:59;96245.06;;;14.03
67966;BMP280;54749;47.850;9.002;2023-09-07T05:18:34;96240.97;;;14.21
67966;BMP280;54749;47.850;9.002;2023-09-07T05:21:11;96241.03;;;14.39
67966;BMP280;54749;47.850;9.002;2023-09-07T05:23:39;96247.91;;;14.67
67966;BMP280;54749;47.850;9.002;2023-09-07T05:26:07;96249.66;;;14.94
67966;BMP280;54749;47.850;9.002;2023-09-07T05:28:35;96247.25;;;15.20
67966;BMP280;54749;47.850;9.002;2023-09-07T05:31:02;96237.53;;;15.51
67966;BMP280;54749;47.850;9.002;2023-09-07T05:33:31;96249.28;;;15.80
67966;BMP280;54749;47.850;9.002;2023-09-07T05:35:58;96249.66;;;16.20
67966;BMP280;54749;47.850;9.002;2023-09-07T05:38:26;96248.47;;;16.41
67966;BMP280;54749;47.850;9.002;2023-09-07T05:40:56;96241.53;;;16.60
67966;BMP280;54749;47.850;9.002;2023-09-07T05:43:23;96244.44;;;16.91
67966;BMP280;54749;47.850;9.002;2023-09-07T05:45:51;96237.63;;;17.17
67966;BMP280;54749;47.850;9.002;2023-09-07T05:48:18;96245.94;;;17.36
67966;BMP280;54749;47.850;9.002;2023-09-07T05:50:46;96234.06;;;17.52
67966;BMP280;54749;47.850;9.002;2023-09-07T05:53:14;96239.66;;;17.80
67966;BMP280;54749;47.850;9.002;2023-09-07T05:55:41;96232.72;;;18.22
67966;BMP280;54749;47.850;9.002;2023-09-07T05:58:09;96228.00;;;18.42
67966;BMP280;54749;47.850;9.002;2023-09-07T06:00:41;96230.06;;;19.03
67966;BMP280;54749;47.850;9.002;2023-09-07T06:03:09;96223.31;;;19.80
67966;BMP280;54749;47.850;9.002;2023-09-07T06:05:38;96218.06;;;20.64
67966;BMP280;54749;47.850;9.002;2023-09-07T06:08:08;96209.09;;;21.33
67966;BMP280;54749;47.850;9.002;2023-09-07T06:10:36;96204.88;;;21.90
67966;BMP280;54749;47.850;9.002;2023-09-07T06:13:05;96202.59;;;22.72
67966;BMP280;54749;47.850;9.002;2023-09-07T06:15:32;96196.31;;;23.35
67966;BMP280;54749;47.850;9.002;2023-09-07T06:18:00;96189.09;;;24.44
67966;BMP280;54749;47.850;9.002;2023-09-07T06:20:27;96177.84;;;25.35
67966;BMP280;54749;47.850;9.002;2023-09-07T06:22:57;96174.09;;;26.37
67966;BMP280;54749;47.850;9.002;2023-09-07T06:25:24;96177.31;;;26.82
67966;BMP280;54749;47.850;9.002;2023-09-07T06:27:53;96166.94;;;27.73
67966;BMP280;54749;47.850;9.002;2023-09-07T06:30:21;96162.50;;;28.67
67966;BMP280;54749;47.850;9.002;2023-09-07T06:32:48;96164.97;;;29.37
67966;BMP280;54749;47.850;9.002;2023-09-07T06:35:18;96167.16;;;29.22
67966;BMP280;54749;47.850;9.002;2023-09-07T06:37:46;96167.28;;;29.56
67966;BMP280;54749;47.850;9.002;2023-09-07T06:40:16;96169.25;;;29.94
67966;BMP280;54749;47.850;9.002;2023-09-07T06:42:49;96169.13;;;30.34
67966;BMP280;54749;47.850;9.002;2023-09-07T06:45:19;96163.50;;;31.02
67966;BMP280;54749;47.850;9.002;2023-09-07T06:47:49;96153.84;;;31.46
67966;BMP280;54749;47.850;9.002;2023-09-07T06:50:18;96154.69;;;31.35
67966;BMP280;54749;47.850;9.002;2023-09-07T06:52:45;96160.50;;;31.37
67966;BMP280;54749;47.850;9.002;2023-09-07T06:55:13;96155.06;;;31.12
67966;BMP280;54749;47.850;9.002;2023-09-07T06:57:40;96166.44;;;31.49
67966;BMP280;54749;47.850;9.002;2023-09-07T07:00:07;96163.75;;;31.76
67966;BMP280;54749;47.850;9.002;2023-09-07T07:02:36;96151.78;;;32.91
67966;BMP280;54749;47.850;9.002;2023-09-07T07:05:04;96147.81;;;34.37
67966;BMP280;54749;47.850;9.002;2023-09-07T07:07:32;96145.44;;;35.00
67966;BMP280;54749;47.850;9.002;2023-09-07T07:09:59;96141.88;;;35.69
67966;BMP280;54749;47.850;9.002;2023-09-07T07:12:26;96148.41;;;35.38
67966;BMP280;54749;47.850;9.002;2023-09-07T07:14:53;96159.09;;;34.97
67966;BMP280;54749;47.850;9.002;2023-09-07T07:17:22;96158.44;;;35.40
67966;BMP280;54749;47.850;9.002;2023-09-07T07:19:49;96152.16;;;35.71
67966;BMP280;54749;47.850;9.002;2023-09-07T07:22:17;96130.28;;;36.85
67966;BMP280;54749;47.850;9.002;2023-09-07T07:24:48;96145.44;;;37.17
67966;BMP280;54749;47.850;9.002;2023-09-07T07:27:16;96132.13;;;37.74
67966;BMP280;54749;47.850;9.002;2023-09-07T07:29:43;96130.69;;;38.14
67966;BMP280;54749;47.850;9.002;2023-09-07T07:32:10;96138.22;;;38.53
67966;BMP280;54749;47.850;9.002;2023-09-07T07:34:38;96148.06;;;38.25
67966;BMP280;54749;47.850;9.002;2023-09-07T07:37:05;96151.28;;;37.89
67966;BMP280;54749;47.850;9.002;2023-09-07T07:39:32;96140.47;;;38.87
67966;BMP280;54749;47.850;9.002;2023-09-07T07:42:00;96149.22;;;39.06
67966;BMP280;54749;47.850;9.002;2023-09-07T07:44:27;96148.75;;;39.04
67966;BMP280;54749;47.850;9.002;2023-09-07T07:46:55;96138.03;;;39.13
67966;BMP280;54749;47.850;9.002;2023-09-07T07:49:22;96125.91;;;38.67
67966;BMP280;54749;47.850;9.002;2023-09-07T07:51:49;96132.25;;;39.47
67966;BMP280;54749;47.850;9.002;2023-09-07T07:54:17;96138.91;;;38.86
67966;BMP280;54749;47.850;9.002;2023-09-07T07:56:45;96141.16;;;37.64
67966;BMP280;54749;47.850;9.002;2023-09-07T07:59:12;96148.75;;;36.95
67966;BMP280;54749;47.850;9.002;2023-09-07T08:01:39;96153.75;;;36.92
67966;BMP280;54749;47.850;9.002;2023-09-07T08:04:08;96146.47;;;36.64
67966;BMP280;54749;47.850;9.002;2023-09-07T08:06:35;96154.50;;;35.96
67966;BMP280;54749;47.850;9.002;2023-09-07T08:09:03;96155.06;;;36.89
67966;BMP280;54749;47.850;9.002;2023-09-07T08:11:30;96149.69;;;36.42
67966;BMP280;54749;47.850;9.002;2023-09-07T08:13:57;96147.06;;;37.14
67966;BMP280;54749;47.850;9.002;2023-09-07T08:16:25;96138.13;;;38.40
67966;BMP280;54749;47.850;9.002;2023-09-07T08:18:52;96135.06;;;37.31
67966;BMP280;54749;47.850;9.002;2023-09-07T08:21:20;96146.31;;;37.03
67966;BMP280;54749;47.850;9.002;2023-09-07T08:23:47;96153.13;;;36.52
67966;BMP280;54749;47.850;9.002;2023-09-07T08:26:15;96136.91;;;37.68
67966;BMP280;54749;47.850;9.002;2023-09-07T08:28:45;96127.78;;;38.43
67966;BMP280;54749;47.850;9.002;2023-09-07T08:31:13;96129.66;;;38.84
67966;BMP280;54749;47.850;9.002;2023-09-07T08:33:49;96112.59;;;39.98
67966;BMP280;54749;47.850;9.002;2023-09-07T08:36:18;96123.34;;;39.21
67966;BMP280;54749;47.850;9.002;2023-09-07T08:38:52;96132.97;;;37.98
67966;BMP280;54749;47.850;9.002;2023-09-07T08:41:21;96118.72;;;38.72
67966;BMP280;54749;47.850;9.002;2023-09-07T08:43:52;96118.16;;;38.93
67966;BMP280;54749;47.850;9.002;2023-09-07T08:46:22;96111.97;;;39.87
67966;BMP280;54749;47.850;9.002;2023-09-07T08:48:50;96116.38;;;39.79
67966;BMP280;54749;47.850;9.002;2023-09-07T08:51:19;96117.50;;;39.91
67966;BMP280;54749;47.850;9.002;2023-09-07T08:53:46;96104.91;;;41.06
67966;BMP280;54749;47.850;9.002;2023-09-07T08:56:14;96101.09;;;42.57
67966;BMP280;54749;47.850;9.002;2023-09-07T08:58:43;96095.31;;;43.51
67966;BMP280;54749;47.850;9.002;2023-09-07T09:01:12;96089.59;;;44.10
67966;BMP280;54749;47.850;9.002;2023-09-07T09:03:42;96093.56;;;44.77
67966;BMP280;54749;47.850;9.002;2023-09-07T09:06:10;96087.06;;;44.86
67966;BMP280;54749;47.850;9.002;2023-09-07T09:08:44;96090.44;;;44.75
67966;BMP280;54749;47.850;9.002;2023-09-07T09:11:13;96091.63;;;44.13
67966;BMP280;54749;47.850;9.002;2023-09-07T09:13:40;96082.34;;;44.55
67966;BMP280;54749;47.850;9.002;2023-09-07T09:16:09;96093.91;;;44.76
67966;BMP280;54749;47.850;9.002;2023-09-07T09:18:37;96086.69;;;44.96
67966;BMP280;54749;47.850;9.002;2023-09-07T09:21:05;96086.25;;;43.68
67966;BMP280;54749;47.850;9.002;2023-09-07T09:23:33;96074.22;;;44.15
67966;BMP280;54749;47.850;9.002;2023-09-07T09:26:04;96077.63;;;44.24
67966;BMP280;54749;47.850;9.002;2023-09-07T09:28:33;96090.91;;;44.69
67966;BMP280;54749;47.850;9.002;2023-09-07T09:31:02;96078.13;;;45.31
67966;BMP280;54749;47.850;9.002;2023-09-07T09:33:32;96076.22;;;45.71
67966;BMP280;54749;47.850;9.002;2023-09-07T09:36:00;96085.69;;;44.52
67966;BMP280;54749;47.850;9.002;2023-09-07T09:38:27;96087.41;;;44.04
67966;BMP280;54749;47.850;9.002;2023-09-07T09:40:57;96075.34;;;44.99
67966;BMP280;54749;47.850;9.002;2023-09-07T09:43:25;96085.56;;;45.25
67966;BMP280;54749;47.850;9.002;2023-09-07T09:45:53;96080.41;;;45.20
67966;BMP280;54749;47.850;9.002;2023-09-07T09:48:20;96080.34;;;44.52
67966;BMP280;54749;47.850;9.002;2023-09-07T09:50:49;96072.88;;;44.74
67966;BMP280;54749;47.850;9.002;2023-09-07T09:53:16;96079.69;;;45.32
67966;BMP280;54749;47.850;9.002;2023-09-07T09:55:46;96060.91;;;45.80
67966;BMP280;54749;47.850;9.002;2023-09-07T09:58:14;96063.03;;;45.54
67966;BMP280;54749;47.850;9.002;2023-09-07T10:00:49;96067.94;;;45.96
67966;BMP280;54749;47.850;9.002;2023-09-07T10:03:26;96056.81;;;45.62
67966;BMP280;54749;47.850;9.002;2023-09-07T10:05:55;96055.81;;;45.67
67966;BMP280;54749;47.850;9.002;2023-09-07T10:08:22;96063.66;;;45.52
67966;BMP280;54749;47.850;9.002;2023-09-07T10:10:53;96062.78;;;44.99
67966;BMP280;54749;47.850;9.002;2023-09-07T10:13:31;96075.00;;;44.08
67966;BMP280;54749;47.850;9.002;2023-09-07T10:16:03;96072.97;;;42.64
67966;BMP280;54749;47.850;9.002;2023-09-07T10:18:35;96067.25;;;43.61
67966;BMP280;54749;47.850;9.002;2023-09-07T10:21:03;96059.44;;;45.11
67966;BMP280;54749;47.850;9.002;2023-09-07T10:23:36;96044.00;;;45.99
67966;BMP280;54749;47.850;9.002;2023-09-07T10:26:05;96049.91;;;46.05
67966;BMP280;54749;47.850;9.002;2023-09-07T10:28:36;96046.88;;;45.94
67966;BMP280;54749;47.850;9.002;2023-09-07T10:31:19;96041.06;;;45.49
67966;BMP280;54749;47.850;9.002;2023-09-07T10:33:46;96045.31;;;45.10
67966;BMP280;54749;47.850;9.002;2023-09-07T10:36:23;96035.53;;;45.14
67966;BMP280;54749;47.850;9.002;2023-09-07T10:38:51;96024.84;;;45.14
67966;BMP280;54749;47.850;9.002;2023-09-07T10:41:22;96038.56;;;45.04
67966;BMP280;54749;47.850;9.002;2023-09-07T10:43:51;96027.22;;;44.67
67966;BMP280;54749;47.850;9.002;2023-09-07T10:46:22;96041.19;;;45.53
67966;BMP280;54749;47.850;9.002;2023-09-07T10:48:51;96034.16;;;44.88
67966;BMP280;54749;47.850;9.002;2023-09-07T10:51:19;96035.50;;;45.34
67966;BMP280;54749;47.850;9.002;2023-09-07T10:53:47;96036.56;;;45.41
67966;BMP280;54749;47.850;9.002;2023-09-07T10:56:14;96033.03;;;45.81
67966;BMP280;54749;47.850;9.002;2023-09-07T10:58:42;96036.84;;;45.91
67966;BMP280;54749;47.850;9.002;2023-09-07T11:01:11;96022.69;;;45.91
67966;BMP280;54749;47.850;9.002;2023-09-07T11:03:41;96026.97;;;45.20
67966;BMP280;54749;47.850;9.002;2023-09-07T11:06:10;96027.56;;;44.86
67966;BMP280;54749;47.850;9.002;2023-09-07T11:08:39;96033.34;;;41.87
67966;BMP280;54749;47.850;9.002;2023-09-07T11:11:06;96041.19;;;40.19
67966;BMP280;54749;47.850;9.002;2023-09-07T11:13:33;96045.53;;;38.68
67966;BMP280;54749;47.850;9.002;2023-09-07T11:16:01;96058.94;;;37.52
67966;BMP280;54749;47.850;9.002;2023-09-07T11:18:29;96055.88;;;36.56
67966;BMP280;54749;47.850;9.002;2023-09-07T11:20:57;96051.09;;;35.47
67966;BMP280;54749;47.850;9.002;2023-09-07T11:23:24;96063.94;;;34.21
67966;BMP280;54749;47.850;9.002;2023-09-07T11:25:51;96052.84;;;34.04
67966;BMP280;54749;47.850;9.002;2023-09-07T11:28:19;96052.50;;;33.91
67966;BMP280;54749;47.850;9.002;2023-09-07T11:30:51;96054.63;;;33.54
67966;BMP280;54749;47.850;9.002;2023-09-07T11:33:19;96054.44;;;33.04
67966;BMP280;54749;47.850;9.002;2023-09-07T11:35:46;96048.31;;;32.93
67966;BMP280;54749;47.850;9.002;2023-09-07T11:38:14;96039.44;;;32.99
67966;BMP280;54749;47.850;9.002;2023-09-07T11:40:42;96049.31;;;32.88
67966;BMP280;54749;47.850;9.002;2023-09-07T11:43:16;96049.44;;;32.76
67966;BMP280;54749;47.850;9.002;2023-09-07T11:45:45;96176.75;;;33.24
67966;BMP280;54749;47.850;9.002;2023-09-07T11:48:13;96046.31;;;32.33
67966;BMP280;54749;47.850;9.002;2023-09-07T11:50:40;96039.19;;;32.28
67966;BMP280;54749;47.850;9.002;2023-09-07T11:53:07;96036.59;;;32.07
67966;BMP280;54749;47.850;9.002;2023-09-07T11:55:35;96042.28;;;32.04
67966;BMP280;54749;47.850;9.002;2023-09-07T11:58:03;96040.53;;;31.89
67966;BMP280;54749;47.850;9.002;2023-09-07T12:00:31;96036.66;;;31.75
67966;BMP280;54749;47.850;9.002;2023-09-07T12:02:59;96046.19;;;31.65
67966;BMP280;54749;47.850;9.002;2023-09-07T12:05:26;96043.19;;;31.57
67966;BMP280;54749;47.850;9.002;2023-09-07T12:07:53;96052.75;;;31.35
67966;BMP280;54749;47.850;9.002;2023-09-07T12:10:21;96049.53;;;31.13
67966;BMP280;54749;47.850;9.002;2023-09-07T12:12:49;96045.56;;;31.10
67966;BMP280;54749;47.850;9.002;2023-09-07T12:15:16;96048.75;;;31.12
67966;BMP280;54749;47.850;9.002;2023-09-07T12:17:43;96034.00;;;31.06
67966;BMP280;54749;47.850;9.002;2023-09-07T12:20:11;96040.28;;;30.78
67966;BMP280;54749;47.850;9.002;2023-09-07T12:22:40;96040.13;;;30.84
67966;BMP280;54749;47.850;9.002;2023-09-07T12:25:08;96035.53;;;30.75
67966;BMP280;54749;47.850;9.002;2023-09-07T12:27:41;96034.41;;;30.71
67966;BMP280;54749;47.850;9.002;2023-09-07T12:30:20;96027.28;;;30.67
67966;BMP280;54749;47.850;9.002;2023-09-07T12:32:50;96032.50;;;30.51
67966;BMP280;54749;47.850;9.002;2023-09-07T12:35:18;96026.47;;;30.50
67966;BMP280;54749;47.850;9.002;2023-09-07T12:37:47;96025.47;;;30.40
67966;BMP280;54749;47.850;9.002;2023-09-07T12:40:14;96029.22;;;30.44
67966;BMP280;54749;47.850;9.002;2023-09-07T12:42:44;96028.25;;;30.34
67966;BMP280;54749;47.850;9.002;2023-09-07T12:45:12;96029.59;;;30.36
67966;BMP280;54749;47.850;9.002;2023-09-07T12:47:40;96021.00;;;30.24
67966;BMP280;54749;47.850;9.002;2023-09-07T12:50:08;96022.09;;;30.28
67966;BMP280;54749;47.850;9.002;2023-09-07T12:52:35;96023.22;;;30.32
67966;BMP280;54749;47.850;9.002;2023-09-07T12:55:06;96026.22;;;30.24
67966;BMP280;54749;47.850;9.002;2023-09-07T12:57:34;96028.63;;;30.15
67966;BMP280;54749;47.850;9.002;2023-09-07T13:00:04;96030.22;;;30.05
67966;BMP280;54749;47.850;9.002;2023-09-07T13:02:32;96025.81;;;30.05
67966;BMP280;54749;47.850;9.002;2023-09-07T13:05:00;96033.78;;;29.99
67966;BMP280;54749;47.850;9.002;2023-09-07T13:07:27;96034.31;;;30.01
67966;BMP280;54749;47.850;9.002;2023-09-07T13:09:54;96024.25;;;30.04
67966;BMP280;54749;47.850;9.002;2023-09-07T13:12:21;96021.66;;;29.93
67966;BMP280;54749;47.850;9.002;2023-09-07T13:14:49;96023.50;;;29.81
67966;BMP280;54749;47.850;9.002;2023-09-07T13:17:16;96018.47;;;29.80
67966;BMP280;54749;47.850;9.002;2023-09-07T13:19:43;96026.06;;;29.92
67966;BMP280;54749;47.850;9.002;2023-09-07T13:22:10;96013.19;;;29.86
67966;BMP280;54749;47.850;9.002;2023-09-07T13:24:38;96012.16;;;29.87
67966;BMP280;54749;47.850;9.002;2023-09-07T13:27:05;96009.53;;;29.76
67966;BMP280;54749;47.850;9.002;2023-09-07T13:29:32;96002.66;;;29.81
67966;BMP280;54749;47.850;9.002;2023-09-07T13:32:00;96000.38;;;29.85
67966;BMP280;54749;47.850;9.002;2023-09-07T13:34:27;95999.34;;;29.86
67966;BMP280;54749;47.850;9.002;2023-09-07T13:36:55;96005.56;;;29.85
67966;BMP280;54749;47.850;9.002;2023-09-07T13:39:23;96005.56;;;29.85
67966;BMP280;54749;47.850;9.002;2023-09-07T13:41:51;96000.38;;;29.73
67966;BMP280;54749;47.850;9.002;2023-09-07T13:44:18;95997.13;;;29.33
67966;BMP280;54749;47.850;9.002;2023-09-07T13:46:45;96014.31;;;29.12
67966;BMP280;54749;47.850;9.002;2023-09-07T13:49:13;95993.00;;;29.15
67966;BMP280;54749;47.850;9.002;2023-09-07T13:51:40;95987.03;;;29.25
67966;BMP280;54749;47.850;9.002;2023-09-07T13:54:09;95992.38;;;29.30
67966;BMP280;54749;47.850;9.002;2023-09-07T13:56:36;95988.28;;;29.45
67966;BMP280;54749;47.850;9.002;2023-09-07T13:59:04;95990.06;;;29.22
67966;BMP280;54749;47.850;9.002;2023-09-07T14:01:31;95999.63;;;29.28
67966;BMP280;54749;47.850;9.002;2023-09-07T14:03:59;95985.81;;;29.39
67966;BMP280;54749;47.850;9.002;2023-09-07T14:06:27;95989.19;;;29.51
67966;BMP280;54749;47.850;9.002;2023-09-07T14:08:54;95995.53;;;29.54
67966;BMP280;54749;47.850;9.002;2023-09-07T14:11:21;95995.75;;;29.53
67966;BMP280;54749;47.850;9.002;2023-09-07T14:13:50;95997.69;;;29.46
67966;BMP280;54749;47.850;9.002;2023-09-07T14:16:22;95994.16;;;29.41